• Join FlightAware (Why Join?)
  • Login
  • US Flag 
06:51AM EST


 

Airport Tracker/Info


-or-


 

Live Flight TrackerFlight Track Log ✈ JIA4649 ✈ 08-Aug-2014 ✈ KCLT - KXNA

Flight Track Log - Related Links

Times and Time Zones

All times are in EDT time to prevent confusion due to time zone crossing. See the JIA4649 flight status page for this flight to view local times or setup timezone preferences in your user account.

Time Position Orientation Groundspeed Altitude Reporting Facility
EDT Latitude Longitude Course Direction KTS MPH feet Rate Location/Type
08:31PM 35.1892 -80.9536 181° South 160 184 1,500  Level Atlanta Center
08:31PM 35.1536 -80.9547 181° South 177 204 2,600 1,615 Climbing Atlanta Center
08:32PM 35.0981 -80.9822 202° Southwest 259 298 4,300 2,075 Climbing Atlanta Center
08:33PM 35.0933 -81.0383 264° West 271 312 6,300 2,547 Climbing Atlanta Center
08:34PM 35.0997 -81.1294 275° West 271 312 8,800 2,500 Climbing Atlanta Center
08:35PM 35.1267 -81.2150 291° West 271 312 11,300 2,350 Climbing Atlanta Center
08:36PM 35.1350 -81.3111 276° West 283 326 13,500 1,500 Climbing Atlanta Center
08:37PM 35.1417 -81.4200 274° West 299 344 14,300 1,250 Climbing Atlanta Center
08:38PM 35.1442 -81.5469 271° West 327 376 16,000 1,700 Climbing Atlanta Center
08:39PM 35.1361 -81.6692 265° West 349 402 17,700 1,350 Climbing Atlanta Center
08:40PM 35.1261 -81.7939 264° West 362 417 18,700 800 Climbing Atlanta Center
08:41PM 35.1158 -81.9161 264° West 367 422 19,300 950 Climbing Atlanta Center
08:42PM 35.1075 -82.0433 265° West 373 429 20,600 1,100 Climbing Atlanta Center
08:43PM 35.0969 -82.1703 264° West 378 435 21,500 950 Climbing Atlanta Center
08:44PM 35.0944 -82.2897 269° West 384 442 22,500 1,050 Climbing Atlanta Center
08:45PM 35.1525 -82.4081 301° West 377 434 23,600 1,550 Climbing Atlanta Center
08:46PM 35.2208 -82.5286 305° West 387 445 25,600 1,200 Climbing Atlanta Center
08:47PM 35.2678 -82.6269 300° West 387 445 26,000 200 Climbing Atlanta Center
08:48PM 35.3297 -82.7481 302° West 398 458 26,000 550 Level Atlanta Center
08:49PM 35.4019 -82.8844 303° West 427 491 27,100 1,250 Climbing Atlanta Center
08:50PM 35.4550 -82.9961 300° West 427 491 28,500 1,400 Climbing Atlanta Center
08:51PM 35.5144 -83.1125 302° West 421 484 29,900 1,000 Climbing Atlanta Center
08:52PM 35.5842 -83.2267 307° West 416 479 30,500 650 Climbing Atlanta Center
08:53PM 35.6703 -83.3206 318° Northwest 411 473 31,200 750 Climbing Atlanta Center
08:54PM 35.7522 -83.4219 315° West 411 473 32,000 1,000 Climbing Atlanta Center
08:55PM 35.7986 -83.5497 294° West 411 473 33,200 1,000 Climbing Atlanta Center
08:56PM 35.8158 -83.6906 279° West 404 465 34,000 400 Climbing Atlanta Center
08:57PM 35.8328 -83.8286 279° West 411 473 34,000  Level Atlanta Center
08:58PM 35.8497 -83.9772 278° West 426 490 34,000  Level Atlanta Center
08:59PM 35.8664 -84.1233 278° West 438 504 34,000  Level Atlanta Center
09:00PM 35.8828 -84.2642 278° West 433 498 34,000  Level Atlanta Center
09:01PM 35.8992 -84.4078 278° West 428 493 34,000  Level Atlanta Center
09:02PM 35.9153 -84.5464 278° West 423 487 34,000  Level Atlanta Center
09:03PM 35.9314 -84.6850 278° West 416 479 34,000  Level Atlanta Center
09:04PM 35.9514 -84.8236 280° West 411 473 34,000  Level Atlanta Center
09:06PM 35.9836 -85.1633 277° West 425 489 34,000  Level Memphis Center
09:07PM 35.9983 -85.3075 277° West 425 489 34,000  Level Memphis Center
09:08PM 36.0139 -85.4539 278° West 427 491 34,000  Level Memphis Center
09:09PM 36.0253 -85.6033 275° West 433 498 34,000  Level Memphis Center
09:11PM 36.0342 -85.7528 274° West 436 502 34,000  Level Memphis Center
09:12PM 36.0450 -85.9217 275° West 437 503 34,000  Level Memphis Center
09:13PM 36.0550 -86.0742 275° West 440 506 34,000  Level Memphis Center
09:14PM 36.0633 -86.2278 274° West 441 507 34,000  Level Memphis Center
09:15PM 36.0728 -86.3811 274° West 442 509 34,000  Level Memphis Center
09:16PM 36.0814 -86.5358 274° West 443 510 34,000  Level Memphis Center
09:17PM 36.0897 -86.6906 274° West 443 510 34,000  Level Memphis Center
09:18PM 36.0986 -86.8469 274° West 445 512 34,000  Level Memphis Center
09:19PM 36.1083 -87.0033 274° West 445 512 34,000  Level Memphis Center
09:20PM 36.1172 -87.1597 274° West 445 512 34,000  Level Memphis Center
09:21PM 36.1256 -87.3147 274° West 446 513 34,000  Level Memphis Center
09:22PM 36.1336 -87.4664 274° West 443 510 34,000  Level Memphis Center
09:23PM 36.1411 -87.6181 274° West 440 506 34,000  Level Memphis Center
09:24PM 36.1489 -87.7683 274° West 438 504 34,000  Level Memphis Center
09:25PM 36.1561 -87.9194 273° West 438 504 34,000  Level Memphis Center
09:26PM 36.1625 -88.0694 273° West 436 502 34,000  Level Memphis Center
09:27PM 36.1692 -88.2181 273° West 436 502 34,000  Level Memphis Center
09:28PM 36.1744 -88.3667 273° West 435 501 34,000  Level Memphis Center
09:29PM 36.1808 -88.5158 273° West 435 501 34,000  Level Memphis Center
09:30PM 36.1881 -88.6953 273° West 435 501 34,000  Level Memphis Center
09:31PM 36.1942 -88.8447 273° West 435 501 34,000  Level Memphis Center
09:32PM 36.1994 -88.9933 273° West 434 499 34,000  Level Memphis Center
09:33PM 36.2053 -89.1458 273° West 434 499 34,000  Level Memphis Center
09:34PM 36.2094 -89.2994 272° West 435 501 34,000  Level Memphis Center
09:35PM 36.2167 -89.4542 273° West 440 506 34,000  Level Memphis Center
09:36PM 36.2214 -89.6067 272° West 440 506 34,000  Level Memphis Center
09:37PM 36.2264 -89.7592 272° West 440 506 34,000  Level Memphis Center
09:38PM 36.2317 -89.9094 273° West 439 505 34,000  Level Memphis Center
09:39PM 36.2356 -90.0611 272° West 439 505 34,000  Level Memphis Center
09:40PM 36.2397 -90.2122 272° West 439 505 34,000  Level Memphis Center
09:41PM 36.2439 -90.3633 272° West 439 505 34,000  Level Memphis Center
09:42PM 36.2475 -90.5147 272° West 439 505 34,000  Level Memphis Center
09:43PM 36.2511 -90.6672 272° West 439 505 34,000  Level Memphis Center
09:44PM 36.2553 -90.8200 272° West 440 506 34,000  Level Memphis Center
09:45PM 36.2581 -90.9714 271° West 440 506 34,000  Level Memphis Center
09:46PM 36.2608 -91.1253 271° West 441 507 34,000  Level Memphis Center
09:47PM 36.2672 -91.3092 273° West 442 509 34,000  Level Memphis Center
09:48PM 36.2692 -91.4625 271° West 443 510 34,000  Level Memphis Center
09:49PM 36.2703 -91.6150 271° West 443 510 34,000 -49 Level Memphis Center
09:50PM 36.2731 -91.7711 271° West 443 510 33,900 -780 Descending Memphis Center
09:51PM 36.2739 -91.9225 270° West 443 510 32,400 -1,463 Descending Memphis Center
09:52PM 36.2758 -92.0742 271° West 443 510 30,900 -1,574 Descending Memphis Center
09:53PM 36.2778 -92.2244 271° West 442 509 29,200 -1,721 Descending Memphis Center
09:54PM 36.2783 -92.3742 270° West 441 507 27,400 -1,770 Descending Memphis Center
09:55PM 36.2803 -92.5244 271° West 440 506 25,600 -1,756 Descending Memphis Center
09:56PM 36.2817 -92.6739 271° West 440 506 23,800 -1,756 Descending Memphis Center
09:57PM 36.2822 -92.8236 270° West 439 505 22,000 -1,918 Descending Memphis Center
09:58PM 36.2831 -92.9961 270° West 429 494 19,900 -1,918 Descending Memphis Center
09:59PM 36.2836 -93.1253 270° West 401 461 18,100 -1,770 Descending Memphis Center
10:00PM 36.2836 -93.2439 270° West 361 415 16,300 -1,756 Descending Memphis Center
10:02PM 36.2761 -93.3542 265° West 332 382 14,500 -1,756 Descending Memphis Center
10:03PM 36.2658 -93.4597 263° West 315 362 12,700 -1,770 Descending Memphis Center
10:04PM 36.2572 -93.5556 264° West 293 337 10,900 -1,770 Descending Memphis Center
10:05PM 36.2469 -93.6503 262° West 282 325 9,100 -1,721 Descending Memphis Center
10:06PM 36.2383 -93.7517 264° West 276 318 7,400 -1,328 Descending Memphis Center
10:07PM 36.2300 -93.8428 264° West 272 313 6,400 -984 Descending Memphis Center
10:08PM 36.2214 -93.9339 263° West 267 307 5,400 -829 Descending Memphis Center
10:09PM 36.2114 -94.0250 262° West 267 307 4,700 -732 Descending Memphis Center
10:10PM 36.2031 -94.1122 263° West 264 304 3,900 -689 Descending Memphis Center
10:11PM 36.1953 -94.1783 262° West 220 253 3,300 -492 Descending Memphis Center
10:12PM 36.1850 -94.2389 258° West 196 226 2,900 -443 Descending Memphis Center
10:13PM 36.2144 -94.2786 313° West 185 213 2,400 -590 Descending Memphis Center
10:14PM 36.2531 -94.2956 341° North 163 188 1,700 -689 Descending Memphis Center